首页
METAR-TAF:

METAR-TAF

机场 :

米兰-马尔彭萨机场

米蘭, 意大利

纬度: 45-37N, 经度: 008-44E, 海拔: 234米

当前天气观测

该预报发布于20分钟前的10:50 UTC
风速5节,风向多变
温度 34°C
湿度 50%
气压 1020 hPa
能见度10公里或以上
1500米以下无云,无积雨云

METAR: LIMC 271050Z VRB05KT CAVOK 34/22 Q1020 NOSIG

时间: 13:10 (11:10 UTC)

预报

该预报发布于6小时和10分钟前的05:00 UTC
预报有效从27日的 06点(UTC)到 28日的 12点(UTC)
风速5节,风向多变
能见度10公里或以上
1500米以下无云,无积雨云

TAF: LIMC 270500Z 2706/2812 VRB05KT CAVOK

超过4000个机场的气象观测和天气预报(METAR&TAF报告)。

可查询的气象台以黄色和红色小点在地图上表示。

将鼠标移到小点上方,可查看气象台名称。

然后点击查看天气观测和预报。

如需切换地图:点击带黑十字的绿色按钮放大地图;点击带横线的绿色按钮缩小地图;或者点击绿色箭头查看邻近地区的地图。


METAR-TAF: